Ana Sayfa
METAR-TAF:

METAR-TAF

Havaalanları :

Concord, New Hampshire, Amerika Birleşik Devletleri

Enlem: 43-11-43N, Boylam: 071-30-04W, yükseklik: 105 m

Güncel hava durumu gözlemi

Rapor saat 20:51 UTC de 9 dakika önce yapıldı.
Rüzgar kuzeydan 8 kt
Sıcaklık -2°C
Nem 26%
Basınç 1032 hPa
Görüş mesafesi: 16.1 km
Açık gökyüzü

METAR: KCON 162051Z AUTO 35008KT 10SM CLR M02/M19 A3047 RMK AO2 SLP325 T10221189 56006

Saat: 16:00 (21:00 UTC)

Tahmin

Rapor saat 19:34 UTC de 1 saat ve 26 dakika önce yapıldı.
Ayın 16'si saat 20 UTC'den ayın 17'si saat 18 UTC'ye kadar geçerli Tahmin
Rüzgar kuzeybatıdan 12 kt ve 18 kt'a kadar ani rüzgarlar
Görüş mesafesi: 10 km
Açık gökyüzü
Ayın 16'si saat 2200 UTC'den
Rüzgar değişken yönden 3 kt
Görüş mesafesi: 10 km
Açık gökyüzü

TAF: KCON 161934Z 1620/1718 32012G18KT P6SM SKC FM162200 VRB03KT P6SM SKC

4.000'den fazla havaalanı için hava durumu gözlemleri ve tahminleri (METAR ve TAF raporları).

Kullanılabilir istasyonlar harita üzerinde sarı ve kırmızı noktalarla gösterilir.

İstasyonun adını görmek için fareyi noktanın üzerinde gezdirin.

Sonrasında hava gözlem ve tahminlerini görmek için tıklayın.

Haritayı değiştirmek için: yaklaştırmak için siyah artı işaretli yeşil düğmeye ve uzaklaştırmak için de eksi işaretli düğmeye hızla tıklayın; bitişik haritalar için yeşil okları kullanın.


METAR-TAF: